createdAt,value
2022-08-18T00:01:25.062Z,6.77
2022-08-18T00:03:56.401Z,7.00
2022-08-18T00:06:28.641Z,6.17
2022-08-18T00:08:56.036Z,5.70
2022-08-18T00:11:23.775Z,5.63
2022-08-18T00:13:51.024Z,6.03
2022-08-18T00:16:18.202Z,5.07
2022-08-18T00:18:45.415Z,5.00
2022-08-18T00:21:12.574Z,5.47
2022-08-18T00:23:39.737Z,4.43
2022-08-18T00:26:06.921Z,4.33
2022-08-18T00:28:34.063Z,4.13
2022-08-18T00:31:01.511Z,3.83
2022-08-18T00:33:28.638Z,4.30
2022-08-18T00:35:56.599Z,4.13
2022-08-18T00:38:24.676Z,3.60
2022-08-18T00:40:53.293Z,3.60
2022-08-18T00:43:22.456Z,3.67
2022-08-18T00:45:50.729Z,3.17
2022-08-18T00:48:18.728Z,3.50
2022-08-18T00:50:46.528Z,3.80
2022-08-18T00:53:22.376Z,3.30
2022-08-18T00:55:54.174Z,3.00
2022-08-18T00:58:25.556Z,3.50
2022-08-18T01:00:52.818Z,3.20
2022-08-18T01:03:24.394Z,3.17
2022-08-18T01:06:00.937Z,3.47
2022-08-18T01:08:29.561Z,3.30
2022-08-18T01:10:57.009Z,3.27
2022-08-18T01:13:27.479Z,3.37
2022-08-18T01:15:54.675Z,3.40
2022-08-18T01:18:40.803Z,2.83
2022-08-18T01:21:32.522Z,3.13
2022-08-18T01:24:00.350Z,3.47
2022-08-18T01:26:27.801Z,3.00
2022-08-18T01:28:55.019Z,3.20
2022-08-18T01:31:34.874Z,2.93
2022-08-18T01:34:02.092Z,2.70
2022-08-18T01:36:29.473Z,2.90
2022-08-18T01:38:56.785Z,2.80
2022-08-18T01:41:30.517Z,3.10
2022-08-18T01:44:01.750Z,3.10
2022-08-18T01:46:30.535Z,3.07
2022-08-18T01:49:01.049Z,3.27
2022-08-18T01:51:40.333Z,3.40
2022-08-18T01:54:08.397Z,3.50
2022-08-18T01:56:36.778Z,3.50
2022-08-18T01:59:06.127Z,3.37
2022-08-18T02:01:37.031Z,3.73
2022-08-18T02:04:33.424Z,4.00
2022-08-18T02:06:54.575Z,4.00
2022-08-18T02:09:23.755Z,4.20
2022-08-18T02:11:52.945Z,4.13
2022-08-18T02:14:25.026Z,4.40
2022-08-18T02:16:59.405Z,4.40
2022-08-18T02:19:29.649Z,4.00
2022-08-18T02:21:56.879Z,4.63
2022-08-18T02:24:24.030Z,4.00
2022-08-18T02:26:51.198Z,4.13
2022-08-18T02:29:18.351Z,4.10
2022-08-18T02:31:45.496Z,4.00
2022-08-18T02:34:12.655Z,3.90
2022-08-18T02:36:39.808Z,3.73
2022-08-18T02:39:07.055Z,4.13
2022-08-18T02:41:34.280Z,4.10
2022-08-18T02:44:01.780Z,4.60
2022-08-18T02:46:30.210Z,4.70
2022-08-18T02:48:58.748Z,4.77
2022-08-18T02:51:26.184Z,4.83
2022-08-18T02:53:54.153Z,4.87
2022-08-18T02:56:40.437Z,5.57
2022-08-18T02:59:13.500Z,5.17
2022-08-18T03:01:41.900Z,5.00
2022-08-18T03:04:10.397Z,5.83
2022-08-18T03:06:38.699Z,7.13
2022-08-18T03:09:07.226Z,8.47
2022-08-18T03:11:34.512Z,8.97
2022-08-18T03:14:01.734Z,7.67
2022-08-18T03:16:32.850Z,8.33
2022-08-18T03:19:01.268Z,8.33
2022-08-18T03:21:29.562Z,8.87
2022-08-18T03:24:01.021Z,7.53
2022-08-18T03:26:31.009Z,7.13
2022-08-18T03:29:00.070Z,7.60
2022-08-18T03:31:28.303Z,7.37
2022-08-18T03:33:59.313Z,6.57
2022-08-18T03:36:28.797Z,7.27
2022-08-18T03:38:56.757Z,6.40
2022-08-18T03:41:57.093Z,6.67
2022-08-18T03:44:12.452Z,6.00
2022-08-18T03:46:41.104Z,6.10
2022-08-18T03:49:09.006Z,6.60
2022-08-18T03:51:36.974Z,6.37
2022-08-18T03:54:05.722Z,6.83
2022-08-18T03:56:34.544Z,7.10
2022-08-18T03:59:03.300Z,6.73
2022-08-18T04:01:32.881Z,6.70
2022-08-18T04:04:02.218Z,6.67
2022-08-18T04:06:34.321Z,6.60
2022-08-18T04:09:02.865Z,6.70
2022-08-18T04:11:36.552Z,6.53
2022-08-18T04:14:05.087Z,6.00
2022-08-18T04:16:32.971Z,6.10
2022-08-18T04:19:03.230Z,5.80
2022-08-18T04:21:31.548Z,6.30
2022-08-18T04:24:02.997Z,6.30
2022-08-18T04:26:30.415Z,6.63
2022-08-18T04:28:59.743Z,6.23
2022-08-18T04:31:26.876Z,6.33
2022-08-18T04:33:54.147Z,6.73
2022-08-18T04:36:21.261Z,6.60
2022-08-18T04:38:48.394Z,6.80
2022-08-18T04:41:15.537Z,6.23
2022-08-18T04:43:42.739Z,7.10
2022-08-18T04:46:11.361Z,7.03
2022-08-18T04:48:39.871Z,6.83
2022-08-18T04:51:08.244Z,8.20
2022-08-18T04:53:45.383Z,8.93
2022-08-18T04:56:15.573Z,10.60
2022-08-18T04:58:49.810Z,10.30
2022-08-18T05:01:17.674Z,11.40
2022-08-18T05:03:50.420Z,11.73
2022-08-18T05:06:17.927Z,11.97
2022-08-18T05:08:45.077Z,11.17
2022-08-18T05:11:12.342Z,11.60
2022-08-18T05:13:39.476Z,12.40
2022-08-18T05:16:11.828Z,12.23
2022-08-18T05:18:44.180Z,12.73
2022-08-18T05:21:15.553Z,13.30
2022-08-18T05:23:47.539Z,14.70
2022-08-18T05:26:15.350Z,13.53
2022-08-18T05:28:42.934Z,11.00
2022-08-18T05:31:13.819Z,10.90
2022-08-18T05:33:41.810Z,13.80
2022-08-18T05:36:18.938Z,13.43
2022-08-18T05:39:08.736Z,17.60
2022-08-18T05:41:38.167Z,19.03
2022-08-18T05:44:05.966Z,18.50
2022-08-18T05:46:38.579Z,19.27
2022-08-18T05:49:06.125Z,21.57
2022-08-18T05:51:36.892Z,23.43
2022-08-18T05:54:23.479Z,24.13
2022-08-18T05:56:50.891Z,24.47
2022-08-18T05:59:23.471Z,25.37
2022-08-18T06:01:54.993Z,25.37
2022-08-18T06:04:40.649Z,23.43
2022-08-18T06:07:10.188Z,26.00
2022-08-18T06:09:40.948Z,25.20
2022-08-18T06:12:20.259Z,25.40
2022-08-18T06:17:31.928Z,24.83
2022-08-18T06:20:04.679Z,23.17
2022-08-18T06:22:36.836Z,24.40
2022-08-18T06:25:19.608Z,24.20
2022-08-18T06:27:55.950Z,26.05
2022-08-18T06:30:41.960Z,24.60
2022-08-18T06:33:15.522Z,24.07
2022-08-18T06:35:55.848Z,25.17
2022-08-18T06:38:40.294Z,24.37
2022-08-18T06:41:40.517Z,23.83
2022-08-18T06:44:03.874Z,23.80
2022-08-18T06:46:37.541Z,24.57
2022-08-18T06:49:06.454Z,26.07
2022-08-18T06:51:36.325Z,25.60
2022-08-18T06:54:08.920Z,26.13
2022-08-18T06:56:42.394Z,25.17
2022-08-18T06:59:27.299Z,26.45
2022-08-18T07:01:57.139Z,26.70
2022-08-18T07:04:31.962Z,30.73
2022-08-18T07:06:59.234Z,27.97
2022-08-18T07:09:33.668Z,26.08
2022-08-18T07:12:08.674Z,27.13
2022-08-18T07:14:47.043Z,26.27
2022-08-18T07:17:22.230Z,27.10
2022-08-18T07:20:30.396Z,27.07
2022-08-18T07:22:59.775Z,26.97
2022-08-18T07:25:32.398Z,27.75
2022-08-18T07:28:01.885Z,27.47
2022-08-18T07:30:31.211Z,26.42
2022-08-18T07:33:16.898Z,28.13
2022-08-18T07:35:46.671Z,28.10
2022-08-18T07:38:41.310Z,27.52
2022-08-18T07:41:09.214Z,26.97
2022-08-18T07:43:51.847Z,28.10
2022-08-18T07:46:35.249Z,29.40
2022-08-18T07:49:04.705Z,29.53
2022-08-18T07:51:45.570Z,29.63
2022-08-18T07:54:47.533Z,28.30
2022-08-18T07:57:27.985Z,29.10
2022-08-18T07:59:58.350Z,28.55
2022-08-18T08:02:34.430Z,28.23
2022-08-18T08:05:07.412Z,28.40
2022-08-18T08:07:41.891Z,29.67
2022-08-18T08:10:27.817Z,29.43
2022-08-18T08:13:08.097Z,30.33
2022-08-18T08:15:42.413Z,27.90
2022-08-18T08:18:09.687Z,32.47
2022-08-18T08:20:57.735Z,26.83
2022-08-18T08:23:33.656Z,25.43
2022-08-18T08:26:03.538Z,25.17
2022-08-18T08:28:31.443Z,24.80
2022-08-18T08:31:33.205Z,23.83
2022-08-18T08:34:17.250Z,22.63
2022-08-18T08:36:46.878Z,22.17
2022-08-18T08:39:33.479Z,21.35
2022-08-18T08:42:31.374Z,20.35
2022-08-18T08:45:00.723Z,20.52
2022-08-18T08:47:33.026Z,19.17
2022-08-18T08:50:05.697Z,19.45
2022-08-18T08:52:39.189Z,18.13
2022-08-18T08:55:15.467Z,18.13
2022-08-18T08:57:53.654Z,17.08
2022-08-18T09:00:21.395Z,15.88
2022-08-18T09:02:58.612Z,16.75
2022-08-18T09:05:30.793Z,14.65
2022-08-18T09:08:07.043Z,13.10
2022-08-18T09:10:53.048Z,12.80
2022-08-18T09:13:30.972Z,11.65
2022-08-18T09:16:17.024Z,11.80
2022-08-18T09:18:53.260Z,11.50
2022-08-18T09:21:41.105Z,11.23
2022-08-18T09:24:13.407Z,11.55
2022-08-18T09:26:45.685Z,11.68
2022-08-18T09:29:23.515Z,10.57
2022-08-18T09:32:12.523Z,10.30
2022-08-18T09:34:45.689Z,10.38
2022-08-18T09:37:24.484Z,10.35
2022-08-18T09:40:16.854Z,9.40
2022-08-18T09:42:54.887Z,10.07
2022-08-18T09:45:33.788Z,8.98
2022-08-18T09:48:08.717Z,10.02
2022-08-18T09:50:52.073Z,9.57
2022-08-18T09:53:37.901Z,9.77
2022-08-18T09:56:06.122Z,9.35
2022-08-18T09:58:45.264Z,9.38
2022-08-18T10:01:20.189Z,9.00
2022-08-18T10:04:20.033Z,8.15
2022-08-18T10:06:51.143Z,7.70
2022-08-18T10:09:36.321Z,8.23
2022-08-18T10:15:05.412Z,6.40
2022-08-18T10:17:36.185Z,6.15
2022-08-18T10:20:25.731Z,6.07
2022-08-18T10:22:55.070Z,6.25
2022-08-18T10:25:33.896Z,6.05
2022-08-18T10:28:05.428Z,6.40
2022-08-18T10:30:56.869Z,6.65
2022-08-18T10:33:42.306Z,6.20
2022-08-18T10:36:11.149Z,5.97
2022-08-18T10:38:46.095Z,5.68
2022-08-18T10:41:42.834Z,5.88
2022-08-18T10:44:28.321Z,5.85
2022-08-18T10:46:57.706Z,5.85
2022-08-18T10:49:26.696Z,6.15
2022-08-18T10:52:03.142Z,6.32
2022-08-18T10:54:36.121Z,5.60
2022-08-18T10:57:38.776Z,5.40
2022-08-18T11:00:28.323Z,4.90
2022-08-18T11:03:08.229Z,5.40
2022-08-18T11:05:46.330Z,4.60
2022-08-18T11:08:17.340Z,5.10
2022-08-18T11:11:27.384Z,4.90
2022-08-18T11:13:47.394Z,5.40
2022-08-18T11:16:15.976Z,5.35
2022-08-18T11:18:46.275Z,5.65
2022-08-18T11:21:23.922Z,5.10
2022-08-18T11:24:26.772Z,5.10
2022-08-18T11:27:03.920Z,5.85
2022-08-18T11:29:41.567Z,5.97
2022-08-18T11:32:20.605Z,5.70
2022-08-18T11:34:54.088Z,5.57
2022-08-18T11:37:27.729Z,5.75
2022-08-18T11:39:57.743Z,5.70
2022-08-18T11:42:30.222Z,5.57
2022-08-18T11:45:16.896Z,5.40
2022-08-18T11:48:00.435Z,5.47
2022-08-18T11:50:29.245Z,5.18
2022-08-18T11:52:56.942Z,5.00
2022-08-18T11:55:31.886Z,4.82
2022-08-18T11:58:00.240Z,5.30
2022-08-18T12:03:38.053Z,5.40
2022-08-18T12:06:20.938Z,5.25
2022-08-18T12:09:02.536Z,5.30
2022-08-18T12:11:31.898Z,5.30
2022-08-18T12:14:30.345Z,5.53
2022-08-18T12:16:53.930Z,5.93
2022-08-18T12:19:22.270Z,5.70
2022-08-18T12:21:54.838Z,5.40
2022-08-18T12:24:36.893Z,5.47
2022-08-18T12:29:55.318Z,6.03
2022-08-18T12:32:48.795Z,6.05
2022-08-18T12:35:13.681Z,5.85
2022-08-18T12:38:11.049Z,5.72
2022-08-18T12:40:32.907Z,5.85
2022-08-18T12:43:00.213Z,6.00
2022-08-18T12:45:28.255Z,5.75
2022-08-18T12:47:56.207Z,6.15
2022-08-18T12:50:30.873Z,5.80
2022-08-18T12:52:59.440Z,5.63
2022-08-18T12:55:27.510Z,5.68
2022-08-18T12:57:54.654Z,5.78
2022-08-18T13:00:29.327Z,5.68
2022-08-18T13:02:57.415Z,5.45
2022-08-18T13:05:27.478Z,6.28
2022-08-18T13:08:04.548Z,5.13
2022-08-18T13:10:42.937Z,5.82
2022-08-18T13:13:13.578Z,5.40
2022-08-18T13:15:55.433Z,5.40
2022-08-18T13:18:28.953Z,5.43
2022-08-18T13:20:57.589Z,5.60
2022-08-18T13:23:27.185Z,5.78
2022-08-18T13:26:01.406Z,5.30
2022-08-18T13:28:30.804Z,5.10
2022-08-18T13:31:02.137Z,5.45
2022-08-18T13:33:35.302Z,5.30
2022-08-18T13:36:17.637Z,5.57
2022-08-18T13:38:46.025Z,5.70
2022-08-18T13:41:15.506Z,5.10
2022-08-18T13:43:44.481Z,5.05
2022-08-18T13:46:13.290Z,5.57
2022-08-18T13:48:41.720Z,5.60
2022-08-18T13:51:10.310Z,5.85
2022-08-18T13:53:51.012Z,5.55
2022-08-18T13:56:19.767Z,6.00
2022-08-18T13:58:53.313Z,5.90
2022-08-18T14:01:44.332Z,6.30
2022-08-18T14:04:12.445Z,6.63
2022-08-18T14:06:51.262Z,6.90
2022-08-18T14:09:27.734Z,7.10
2022-08-18T14:12:06.214Z,7.18
2022-08-18T14:14:34.033Z,7.28
2022-08-18T14:17:01.306Z,7.43
2022-08-18T14:19:47.361Z,7.00
2022-08-18T14:22:33.613Z,7.03
2022-08-18T14:25:22.371Z,7.18
2022-08-18T14:27:56.787Z,8.30
2022-08-18T14:30:24.389Z,7.32
2022-08-18T14:32:53.642Z,7.20
2022-08-18T14:36:03.674Z,7.30
2022-08-18T14:38:10.409Z,7.53
2022-08-18T14:40:42.987Z,7.80
2022-08-18T14:43:11.048Z,7.70
2022-08-18T14:45:38.212Z,7.72
2022-08-18T14:48:07.485Z,7.60
2022-08-18T14:50:35.059Z,8.00
2022-08-18T14:53:02.309Z,8.18
2022-08-18T14:55:30.659Z,7.90
2022-08-18T14:57:59.477Z,8.45
2022-08-18T15:00:27.729Z,8.52
2022-08-18T15:02:54.999Z,8.10
2022-08-18T15:05:24.100Z,7.75
2022-08-18T15:07:51.902Z,7.72
2022-08-18T15:10:23.677Z,8.32
2022-08-18T15:12:55.418Z,7.88
2022-08-18T15:15:22.958Z,7.85
2022-08-18T15:17:52.835Z,8.40
2022-08-18T15:20:28.577Z,7.93
2022-08-18T15:23:15.019Z,7.90
2022-08-18T15:25:45.054Z,8.65
2022-08-18T15:28:17.590Z,7.60
2022-08-18T15:30:51.187Z,7.68
2022-08-18T15:33:23.641Z,7.20
2022-08-18T15:35:51.928Z,6.85
2022-08-18T15:38:20.067Z,6.65
2022-08-18T15:40:52.942Z,6.53
2022-08-18T15:43:25.404Z,6.93
2022-08-18T15:45:58.255Z,6.38
2022-08-18T15:48:26.319Z,7.03
2022-08-18T15:50:53.461Z,6.55
2022-08-18T15:53:30.070Z,6.80
2022-08-18T15:55:57.988Z,6.75
2022-08-18T15:58:26.861Z,7.05
2022-08-18T16:00:55.665Z,7.20
2022-08-18T16:03:22.804Z,7.10
2022-08-18T16:05:52.606Z,7.18
2022-08-18T16:08:21.213Z,7.10
2022-08-18T16:10:48.351Z,6.63
2022-08-18T16:13:15.562Z,6.53
2022-08-18T16:15:46.773Z,6.57
2022-08-18T16:18:14.510Z,6.57
2022-08-18T16:20:43.393Z,6.38
2022-08-18T16:23:12.141Z,6.63
2022-08-18T16:25:40.123Z,6.45
2022-08-18T16:28:07.500Z,6.53
2022-08-18T16:30:34.948Z,6.03
2022-08-18T16:33:03.521Z,6.53
2022-08-18T16:35:31.109Z,6.47
2022-08-18T16:38:02.454Z,6.20
2022-08-18T16:40:30.512Z,6.38
2022-08-18T16:43:00.010Z,6.57
2022-08-18T16:45:27.667Z,6.45
2022-08-18T16:47:55.380Z,6.68
2022-08-18T16:50:24.931Z,6.43
2022-08-18T16:52:52.277Z,6.00
2022-08-18T16:55:19.695Z,6.68
2022-08-18T16:58:05.667Z,6.40
2022-08-18T17:00:54.613Z,6.85
2022-08-18T17:03:41.394Z,6.68
2022-08-18T17:06:10.802Z,6.55
2022-08-18T17:08:38.204Z,6.82
2022-08-18T17:11:06.452Z,6.72
2022-08-18T17:13:33.719Z,7.13
2022-08-18T17:16:01.235Z,7.18
2022-08-18T17:18:30.459Z,7.18
2022-08-18T17:20:58.039Z,7.47
2022-08-18T17:23:26.741Z,7.15
2022-08-18T17:25:53.986Z,7.85
2022-08-18T17:28:26.129Z,7.35
2022-08-18T17:30:53.596Z,7.32
2022-08-18T17:33:24.594Z,8.07
2022-08-18T17:35:54.152Z,8.00
2022-08-18T17:38:49.340Z,8.57
2022-08-18T17:41:20.915Z,8.00
2022-08-18T17:43:48.175Z,8.18
2022-08-18T17:46:18.453Z,9.20
2022-08-18T17:48:48.607Z,9.10
2022-08-18T17:51:34.443Z,8.38
2022-08-18T17:54:22.024Z,9.00
2022-08-18T17:56:52.607Z,8.95
2022-08-18T17:59:42.792Z,8.88
2022-08-18T18:02:29.773Z,8.75
2022-08-18T18:05:01.986Z,9.07
2022-08-18T18:07:30.900Z,8.55
2022-08-18T18:10:18.296Z,9.15
2022-08-18T18:12:45.578Z,9.65
2022-08-18T18:15:13.726Z,9.07
2022-08-18T18:17:41.692Z,9.32
2022-08-18T18:20:32.794Z,9.45
2022-08-18T18:23:16.614Z,9.77
2022-08-18T18:25:44.097Z,8.43
2022-08-18T18:28:34.668Z,9.48
2022-08-18T18:31:17.722Z,9.70
2022-08-18T18:33:45.857Z,9.80
2022-08-18T18:36:12.995Z,8.77
2022-08-18T18:38:48.999Z,9.10
2022-08-18T18:41:28.353Z,9.00
2022-08-18T18:44:05.683Z,8.55
2022-08-18T18:46:41.284Z,8.02
2022-08-18T18:49:18.232Z,8.35
2022-08-18T18:52:04.347Z,8.35
2022-08-18T18:54:32.981Z,7.82
2022-08-18T18:57:00.515Z,8.38
2022-08-18T18:59:35.651Z,7.65
2022-08-18T19:02:34.619Z,7.22
2022-08-18T19:05:21.557Z,7.45
2022-08-18T19:07:56.816Z,7.28
2022-08-18T19:10:32.280Z,7.38
2022-08-18T19:13:02.542Z,7.10
2022-08-18T19:15:35.296Z,7.65
2022-08-18T19:18:19.442Z,7.68
2022-08-18T19:22:02.257Z,7.28
2022-08-18T19:23:55.708Z,7.45
2022-08-18T19:26:27.427Z,8.05
2022-08-18T19:29:12.351Z,7.53
2022-08-18T19:31:44.546Z,7.97
2022-08-18T19:34:30.177Z,8.68
2022-08-18T19:37:01.116Z,9.00
2022-08-18T19:39:34.006Z,8.52
2022-08-18T19:42:19.999Z,7.20
2022-08-18T19:45:00.372Z,8.48
2022-08-18T19:47:40.535Z,9.13
2022-08-18T19:50:16.752Z,8.85
2022-08-18T19:52:56.429Z,8.98
2022-08-18T19:55:28.225Z,8.57
2022-08-18T19:58:02.319Z,9.60
2022-08-18T20:00:38.700Z,9.23
2022-08-18T20:03:05.849Z,9.68
2022-08-18T20:05:51.531Z,9.07
2022-08-18T20:08:37.987Z,9.68
2022-08-18T20:11:12.250Z,9.10
2022-08-18T20:13:43.268Z,9.75
2022-08-18T20:16:13.917Z,10.00
2022-08-18T20:18:49.039Z,9.70
2022-08-18T20:21:16.619Z,9.77
2022-08-18T20:23:58.987Z,9.75
2022-08-18T20:26:38.121Z,9.60
2022-08-18T20:29:12.410Z,10.18
2022-08-18T20:31:58.498Z,10.27
2022-08-18T20:34:27.684Z,9.13
2022-08-18T20:36:57.640Z,10.48
2022-08-18T20:39:40.220Z,9.23
2022-08-18T20:42:09.977Z,8.97
2022-08-18T20:44:50.612Z,9.73
2022-08-18T20:47:36.312Z,9.03
2022-08-18T20:50:03.756Z,9.80
2022-08-18T20:52:43.961Z,9.50
2022-08-18T20:55:24.294Z,9.60
2022-08-18T20:57:55.505Z,9.90
2022-08-18T21:00:27.303Z,9.60
2022-08-18T21:02:59.764Z,9.67
2022-08-18T21:05:28.877Z,9.70
2022-08-18T21:08:04.759Z,10.03
2022-08-18T21:10:33.194Z,9.40
2022-08-18T21:13:02.044Z,9.63
2022-08-18T21:15:30.953Z,10.20
2022-08-18T21:17:59.201Z,9.97
2022-08-18T21:20:27.636Z,9.90
2022-08-18T21:23:12.207Z,10.40
2022-08-18T21:25:50.268Z,10.00
2022-08-18T21:28:17.843Z,9.50
2022-08-18T21:30:55.806Z,9.60
2022-08-18T21:33:23.013Z,9.57
2022-08-18T21:35:50.162Z,10.17
2022-08-18T21:38:24.688Z,10.23
2022-08-18T21:40:56.052Z,9.30
2022-08-18T21:43:37.516Z,9.43
2022-08-18T21:46:05.156Z,10.03
2022-08-18T21:48:33.949Z,9.67
2022-08-18T21:51:02.815Z,9.57
2022-08-18T21:53:31.399Z,9.23
2022-08-18T21:55:59.567Z,9.23
2022-08-18T21:58:32.609Z,9.57
2022-08-18T22:01:07.664Z,9.30
2022-08-18T22:03:35.582Z,9.03
2022-08-18T22:06:03.382Z,9.60
2022-08-18T22:08:32.674Z,9.63
2022-08-18T22:12:01.297Z,9.47
2022-08-18T22:14:27.093Z,9.77
2022-08-18T22:17:14.209Z,9.97
2022-08-18T22:19:41.378Z,9.90
2022-08-18T22:22:27.071Z,9.97
2022-08-18T22:24:57.680Z,9.20
2022-08-18T22:27:26.143Z,9.97
2022-08-18T22:29:54.962Z,9.77
2022-08-18T22:32:22.550Z,10.03
2022-08-18T22:34:50.308Z,10.20
2022-08-18T22:37:19.377Z,11.10
2022-08-18T22:39:49.062Z,10.73
2022-08-18T22:42:17.153Z,10.80
2022-08-18T22:44:44.951Z,10.83
2022-08-18T22:47:12.176Z,10.50
2022-08-18T22:49:39.517Z,10.30
2022-08-18T22:52:15.883Z,10.57
2022-08-18T22:54:43.561Z,11.10
2022-08-18T22:57:10.935Z,10.70
2022-08-18T22:59:42.675Z,10.03
2022-08-18T23:02:11.237Z,10.73
2022-08-18T23:04:38.430Z,10.47
2022-08-18T23:07:05.651Z,11.40
2022-08-18T23:09:33.398Z,10.73
2022-08-18T23:12:05.491Z,10.47
2022-08-18T23:14:33.759Z,11.20
2022-08-18T23:17:02.043Z,11.67
2022-08-18T23:19:31.474Z,11.53
2022-08-18T23:22:02.365Z,11.57
2022-08-18T23:24:29.604Z,12.33
2022-08-18T23:26:57.348Z,11.47
2022-08-18T23:29:24.797Z,11.30
2022-08-18T23:31:52.211Z,11.67
2022-08-18T23:34:24.433Z,12.20
2022-08-18T23:36:56.385Z,13.77
2022-08-18T23:39:24.831Z,13.37
2022-08-18T23:41:55.488Z,13.50
2022-08-18T23:44:27.419Z,13.90
2022-08-18T23:46:55.210Z,12.90
2022-08-18T23:49:23.309Z,14.33
2022-08-18T23:51:51.569Z,13.90
2022-08-18T23:54:39.077Z,12.80
2022-08-18T23:57:06.362Z,13.43
2022-08-18T23:59:33.497Z,15.90
